Flight Track Log - Related Links

Times and Time Zones

All times are in EDT time to prevent confusion due to time zone crossing. See the SWA1034 flight status page for this flight to view local times or setup timezone preferences in your user account.

Time Position Orientation Groundspeed Altitude Reporting Facility
EDT Latitude Longitude Course Direction KTS MPH feet Rate Location/Type
Mon 09:14:17 PM 38.7333 -90.3333 90° East 160 184 1,700  Level Gateway (St. Louis) TRACON
Mon 09:15:11 PM 38.7333 -90.2667 90° East 220 253 4,000 2,526 Climbing Gateway (St. Louis) TRACON
Mon 09:16:11 PM 38.7333 -90.1833 90° East 244 281 6,500 2,524 Climbing Gateway (St. Louis) TRACON
Mon 09:17:17 PM 38.7333 -90.0667 90° East 297 342 9,300 2,133 Climbing Gateway (St. Louis) TRACON
Mon 09:18:26 PM 38.7500 -89.9503 80° East 313 360 11,300 2,107 Climbing Kansas City Center
Mon 09:19:28 PM 38.7622 -89.8233 83° East 356 410 13,900 2,468 Climbing Kansas City Center
Mon 09:20:30 PM 38.7750 -89.6914 83° East 370 426 16,400 2,304 Climbing Kansas City Center
Mon 09:21:33 PM 38.7881 -89.5550 83° East 384 442 18,700 1,935 Climbing Kansas City Center
Mon 09:22:34 PM 38.8047 -89.4131 81° East 401 461 20,400 2,000 Climbing Kansas City Center
Mon 09:23:36 PM 38.8272 -89.2364 81° East 417 480 22,800 1,918 Climbing Kansas City Center
Mon 09:24:36 PM 38.8461 -89.0836 81° East 431 496 24,300 1,113 Climbing Kansas City Center
Mon 09:25:40 PM 38.8669 -88.9264 80° East 444 511 25,100 871 Climbing Kansas City Center
Mon 09:26:40 PM 38.8889 -88.7644 80° East 457 526 26,100 1,180 Climbing Kansas City Center
Mon 09:27:42 PM 38.9081 -88.5900 82° East 460 529 27,500 1,392 Climbing Kansas City Center
Mon 09:28:45 PM 38.9350 -88.4236 78° East 468 539 29,000 1,728 Climbing Kansas City Center
Mon 09:29:47 PM 38.9883 -88.2500 68° East 468 539 31,100 1,561 Climbing Kansas City Center
Mon 09:30:48 PM 39.0244 -88.1142 71° East 457 526 32,200 1,065 Climbing Kansas City Center
Mon 09:31:34 PM 39.0569 -87.9914 71° East 460 529 33,000 449 Climbing Indianapolis Center
Mon 09:32:35 PM 39.1003 -87.8328 71° East 461 531 33,000  Level Indianapolis Center
Mon 09:33:37 PM 39.1450 -87.6733 70° East 465 535 33,000  Level Indianapolis Center
Mon 09:34:38 PM 39.1953 -87.4842 71° East 467 537 33,000  Level Indianapolis Center
Mon 09:35:40 PM 39.2386 -87.3261 70° East 467 537 33,000  Level Indianapolis Center
Mon 09:36:41 PM 39.2808 -87.1706 71° East 467 537 33,000  Level Indianapolis Center
Mon 09:37:42 PM 39.3225 -87.0147 71° East 463 533 33,000  Level Indianapolis Center
Mon 09:38:44 PM 39.3639 -86.8594 71° East 463 533 33,000  Level Indianapolis Center
Mon 09:39:45 PM 39.4100 -86.7097 68° East 457 526 33,000  Level Indianapolis Center
Mon 09:40:46 PM 39.5039 -86.6133 38° Northeast 434 499 33,000  Level Indianapolis Center
Mon 09:41:48 PM 39.5997 -86.5244 36° Northeast 427 491 33,000  Level Indianapolis Center
Mon 09:42:49 PM 39.6972 -86.4314 36° Northeast 427 491 33,000  Level Indianapolis Center
Mon 09:43:50 PM 39.8031 -86.3294 36° Northeast 431 496 33,000  Level Indianapolis Center
Mon 09:44:52 PM 39.8992 -86.2394 36° Northeast 432 497 33,000  Level Indianapolis Center
Mon 09:45:53 PM 39.9986 -86.1444 36° Northeast 436 502 33,000  Level Indianapolis Center
Mon 09:46:54 PM 40.1183 -86.0300 36° Northeast 439 505 33,000  Level Indianapolis Center
Mon 09:47:51 PM 40.1981 -85.9528 36° Northeast 445 512 33,000  Level Chicago Center
Mon 09:48:53 PM 40.2989 -85.8556 36° Northeast 448 516 33,000  Level Chicago Center
Mon 09:49:54 PM 40.3994 -85.7583 36° Northeast 451 519 33,000  Level Chicago Center
Mon 09:50:56 PM 40.5189 -85.6414 37° Northeast 448 516 33,000  Level Chicago Center
Mon 09:51:58 PM 40.6178 -85.5450 36° Northeast 445 512 33,000 -927 Level Chicago Center
Mon 09:52:59 PM 40.7044 -85.4606 36° Northeast 442 509 31,100 -2,488 Descending Chicago Center
Mon 09:54:01 PM 40.8203 -85.3461 37° Northeast 436 502 27,900 -2,683 Descending Chicago Center
Mon 09:55:02 PM 40.9122 -85.2519 38° Northeast 424 488 25,600 -2,293 Descending Chicago Center
Mon 09:56:04 PM 41.0008 -85.1647 37° Northeast 406 467 23,200 -2,032 Descending Chicago Center
Mon 09:57:06 PM 41.0881 -85.0708 39° Northeast 404 465 21,400 -1,073 Descending Chicago Center
Mon 09:58:07 PM 41.1769 -84.9750 39° Northeast 412 474 21,000 -192 Descending Chicago Center
Mon 09:59:11 PM 41.2811 -84.8631 39° Northeast 406 467 21,000  Level Chicago Center
Mon 10:00:12 PM 41.3678 -84.7706 39° Northeast 404 465 21,000  Level Chicago Center
Mon 10:01:14 PM 41.4536 -84.6764 39° Northeast 402 463 21,000 -98 Level Chicago Center
Mon 10:02:15 PM 41.5422 -84.5803 39° Northeast 411 473 20,800 -1,077 Descending Chicago Center
Mon 10:03:11 PM 41.6267 -84.4878 39° Northeast 398 458 18,900 -2,051 Descending Cleveland Center
Mon 10:04:12 PM 41.6928 -84.3811 50° Northeast 382 440 16,800 -2,092 Descending Cleveland Center
Mon 10:05:00 PM 41.7350 -84.2753 62° Northeast 373 429 15,100 -2,032 Descending Cleveland Center
Mon 10:05:14 PM 41.7422 -84.2553 64° Northeast 379 436 14,700 -1,967 Descending Cleveland Center
Mon 10:06:01 PM 41.7808 -84.1564 62° Northeast 362 417 13,100 -1,967 Descending Cleveland Center
Mon 10:06:15 PM 41.7875 -84.1372 65° Northeast 361 415 12,700 -1,000 Descending Cleveland Center
Mon 10:07:07 PM 41.8317 -84.0267 62° Northeast 328 377 12,000 -689 Descending Cleveland Center
Mon 10:07:16 PM 41.8339 -84.0256 20° North 345 397 12,000 -327 Level Cleveland Center
Mon 10:08:02 PM 41.8772 -83.9353 57° Northeast 316 364 11,700 -484 Descending Cleveland Center
Mon 10:08:18 PM 41.8817 -83.9269 54° Northeast 324 373 11,500 -1,247 Descending Cleveland Center
Mon 10:09:19 PM 41.9139 -83.8214 68° East 310 357 10,100 -1,707 Descending Cleveland Center
Mon 10:10:21 PM 41.9528 -83.7047 66° East 289 333 8,000 -2,036 Descending Cleveland Center
Mon 10:11:11 PM 41.9803 -83.6247 65° Northeast 279 321 6,300 -1,967 Descending Cleveland Center
Mon 10:11:22 PM 41.9867 -83.6092 61° Northeast 288 331 6,000 -1,800 Descending Cleveland Center
Mon 10:12:11 PM 42.0308 -83.5419 48° Northeast 273 314 4,500 -1,548 Descending Cleveland Center
Mon 10:12:24 PM 42.0367 -83.5331 49° Northeast 276 318 4,400 -689 Descending Cleveland Center
Mon 10:13:12 PM 42.0761 -83.4725 49° Northeast 229 264 3,800 -787 Descending Cleveland Center
Mon 10:13:25 PM 42.0806 -83.4656 49° Northeast 253 291 3,600 -800 Descending Cleveland Center
Mon 10:14:27 PM 42.1297 -83.4400 21° North 204 235 2,800 -1,091 Descending Cleveland Center
Mon 10:15:26 PM 42.1694 -83.4069 32° Northeast 137 158 1,400 -1,180 Descending Cleveland Center
Mon 10:15:28 PM 42.1661 -83.4106 219° Southwest 171 197 1,600 -656 Climbing Cleveland Center
Mon 10:16:30 PM 42.1992 -83.3858 29° Northeast 150 173 700 -871 Descending Cleveland Center
Mon 10:18:00 PM 42.2000 -83.3500 North  Level FlightAware Approximate
Mon 10:25:00 PM 42.2124 -83.3534 North  Level Estimated

Login

Don't have an account? Register now (free) for customized features, flight alerts, and more!